createdAt,value
2022-11-09T00:00:26.636Z,100630.89
2022-11-09T00:05:34.446Z,100633.91
2022-11-09T00:10:42.223Z,100630.27
2022-11-09T00:15:50.008Z,100630.48
2022-11-09T00:20:57.950Z,100627.26
2022-11-09T00:26:06.826Z,100626.27
2022-11-09T00:31:18.671Z,100624.95
2022-11-09T00:36:28.356Z,100621.52
2022-11-09T00:41:36.156Z,100620.25
2022-11-09T00:46:43.932Z,100622.42
2022-11-09T00:51:52.290Z,100620.23
2022-11-09T00:56:58.754Z,100619.89
2022-11-09T01:02:07.032Z,100617.84
2022-11-09T01:07:15.347Z,100616.47
2022-11-09T01:12:21.684Z,100613.64
2022-11-09T01:17:32.238Z,100610.48
2022-11-09T01:22:40.065Z,100608.02
2022-11-09T01:27:47.903Z,100603.05
2022-11-09T01:32:55.669Z,100599.83
2022-11-09T01:38:03.779Z,100599.91
2022-11-09T01:43:18.831Z,100603.08
2022-11-09T01:48:35.762Z,100605.73
2022-11-09T01:53:49.128Z,100618.26
2022-11-09T01:59:00.498Z,100606.73
2022-11-09T02:04:15.703Z,100594.47
2022-11-09T02:09:41.374Z,100582.14
2022-11-09T02:14:52.171Z,100573.73
2022-11-09T02:20:01.356Z,100564.62
2022-11-09T02:25:11.602Z,100555.63
2022-11-09T02:30:22.192Z,100557.13
2022-11-09T02:35:30.046Z,100548.39
2022-11-09T02:40:38.461Z,100554.66
2022-11-09T02:45:46.511Z,100551.99
2022-11-09T02:50:56.948Z,100552.67
2022-11-09T02:56:04.791Z,100559.14
2022-11-09T03:01:12.653Z,100574.91
2022-11-09T03:06:21.060Z,100582.61
2022-11-09T03:11:30.150Z,100581.04
2022-11-09T03:16:40.352Z,100574.88
2022-11-09T03:21:48.140Z,100578.27
2022-11-09T03:26:55.990Z,100572.45
2022-11-09T03:32:04.817Z,100575.21
2022-11-09T03:37:12.823Z,100575.73
2022-11-09T03:42:21.134Z,100565.17
2022-11-09T03:47:30.143Z,100564.02
2022-11-09T03:52:38.114Z,100568.46
2022-11-09T03:57:48.665Z,100566.60
2022-11-09T04:02:56.418Z,100577.54
2022-11-09T04:08:04.546Z,100567.91
2022-11-09T04:13:12.501Z,100563.75
2022-11-09T04:18:20.619Z,100565.11
2022-11-09T04:23:28.469Z,100564.95
2022-11-09T04:28:36.098Z,100557.46
2022-11-09T04:33:43.733Z,100552.77
2022-11-09T04:38:51.665Z,100556.05
2022-11-09T04:44:01.215Z,100556.56
2022-11-09T04:49:09.251Z,100549.83
2022-11-09T04:54:16.989Z,100551.30
2022-11-09T04:59:25.018Z,100555.35
2022-11-09T05:04:35.160Z,100531.22
2022-11-09T05:09:43.089Z,100522.65
2022-11-09T05:14:50.701Z,100526.64
2022-11-09T05:19:58.608Z,100541.79
2022-11-09T05:25:06.668Z,100541.70
2022-11-09T05:30:13.541Z,100545.86
2022-11-09T05:35:21.234Z,100547.64
2022-11-09T05:40:28.973Z,100543.87
2022-11-09T05:45:42.636Z,100535.96
2022-11-09T05:50:51.309Z,100539.34
2022-11-09T05:56:07.384Z,100544.05
2022-11-09T06:01:16.525Z,100551.80
2022-11-09T06:06:24.872Z,100560.23
2022-11-09T06:11:31.353Z,100559.64
2022-11-09T06:16:39.317Z,100557.67
2022-11-09T06:21:47.004Z,100552.91
2022-11-09T06:26:54.837Z,100552.20
2022-11-09T06:32:02.975Z,100549.39
2022-11-09T06:37:10.750Z,100549.89
2022-11-09T06:42:18.953Z,100547.23
2022-11-09T06:47:28.431Z,100552.58
2022-11-09T06:52:36.027Z,100555.02
2022-11-09T06:57:43.875Z,100554.77
2022-11-09T07:02:52.491Z,100558.32
2022-11-09T07:08:00.820Z,100560.27
2022-11-09T07:13:09.021Z,100553.08
2022-11-09T07:18:16.669Z,100557.85
2022-11-09T07:23:24.513Z,100558.72
2022-11-09T07:28:30.742Z,100561.90
2022-11-09T07:33:38.690Z,100563.36
2022-11-09T07:38:44.867Z,100574.34
2022-11-09T07:43:52.813Z,100583.00
2022-11-09T07:49:00.476Z,100590.60
2022-11-09T07:54:08.651Z,100576.61
2022-11-09T07:59:14.704Z,100578.80
2022-11-09T08:04:22.346Z,100578.16
2022-11-09T08:09:30.570Z,100571.29
2022-11-09T08:14:39.550Z,100564.33
2022-11-09T08:19:47.308Z,100551.87
2022-11-09T08:24:55.245Z,100559.42
2022-11-09T08:30:01.586Z,100568.14
2022-11-09T08:35:11.511Z,100560.91
2022-11-09T08:40:22.679Z,100554.40
2022-11-09T08:45:31.123Z,100549.05
2022-11-09T08:50:40.525Z,100545.39
2022-11-09T08:55:49.585Z,100550.80
2022-11-09T09:00:58.164Z,100555.57
2022-11-09T09:06:07.989Z,100558.98
2022-11-09T09:11:16.761Z,100562.03
2022-11-09T09:16:24.509Z,100578.13
2022-11-09T09:21:32.400Z,100579.96
2022-11-09T09:26:40.019Z,100582.71
2022-11-09T09:31:47.750Z,100581.59
2022-11-09T09:36:56.683Z,100578.61
2022-11-09T09:42:06.747Z,100584.83
2022-11-09T09:47:18.238Z,100582.63
2022-11-09T09:52:34.986Z,100579.47
2022-11-09T09:57:45.360Z,100586.75
2022-11-09T10:02:54.081Z,100581.63
2022-11-09T10:08:10.276Z,100571.38
2022-11-09T10:13:52.163Z,100562.58
2022-11-09T10:19:20.600Z,100554.73
2022-11-09T10:24:36.795Z,100544.76
2022-11-09T10:29:47.996Z,100558.89
2022-11-09T10:35:07.276Z,100568.55
2022-11-09T10:40:20.940Z,100576.17
2022-11-09T10:45:58.545Z,100559.52
2022-11-09T10:51:37.899Z,100551.55
2022-11-09T10:57:14.257Z,100553.06
2022-11-09T11:02:48.493Z,100559.63
2022-11-09T11:08:42.319Z,100559.17
2022-11-09T11:14:23.062Z,100572.26
2022-11-09T11:19:50.303Z,100566.81
2022-11-09T11:25:25.161Z,100569.03
2022-11-09T11:30:52.465Z,100576.84
2022-11-09T11:36:28.037Z,100570.87
2022-11-09T11:42:16.546Z,100578.98
2022-11-09T11:47:51.423Z,100587.38
2022-11-09T11:53:32.845Z,100591.23
2022-11-09T11:59:15.921Z,100591.98
2022-11-09T12:05:06.323Z,100595.71
2022-11-09T12:10:46.917Z,100585.48
2022-11-09T12:16:22.177Z,100582.70
2022-11-09T12:21:56.420Z,100578.36
2022-11-09T12:27:38.897Z,100574.83
2022-11-09T12:33:10.207Z,100576.16
2022-11-09T12:38:43.545Z,100571.27
2022-11-09T12:44:19.707Z,100567.59
2022-11-09T12:49:48.051Z,100563.98
2022-11-09T12:55:14.919Z,100573.96
2022-11-09T13:00:54.449Z,100578.14
2022-11-09T13:06:24.180Z,100579.69
2022-11-09T13:11:53.642Z,100571.70
2022-11-09T13:17:55.050Z,100563.77
2022-11-09T13:23:54.688Z,100567.35
2022-11-09T13:29:52.219Z,100571.85
2022-11-09T13:35:52.171Z,100568.98
2022-11-09T13:41:43.946Z,100562.98
2022-11-09T13:47:25.009Z,100559.20
2022-11-09T13:52:54.135Z,100563.34
2022-11-09T13:58:24.814Z,100581.73
2022-11-09T14:03:54.391Z,100586.75
2022-11-09T14:09:22.513Z,100589.89
2022-11-09T14:15:09.397Z,100599.20
2022-11-09T14:20:43.180Z,100600.59
2022-11-09T14:26:20.627Z,100597.41
2022-11-09T14:31:51.030Z,100594.24
2022-11-09T14:37:18.631Z,100594.27
2022-11-09T14:42:53.471Z,100591.31
2022-11-09T14:48:22.047Z,100584.74
2022-11-09T14:53:51.020Z,100575.80
2022-11-09T14:59:20.105Z,100579.42
2022-11-09T15:04:58.946Z,100594.56
2022-11-09T15:10:29.935Z,100602.23
2022-11-09T15:15:58.449Z,100607.69
2022-11-09T15:21:36.436Z,100605.24
2022-11-09T15:27:03.192Z,100607.38
2022-11-09T15:32:34.165Z,100608.98
2022-11-09T15:38:00.421Z,100612.23
2022-11-09T15:43:28.016Z,100626.10
2022-11-09T15:48:54.584Z,100623.31
2022-11-09T15:54:21.664Z,100621.95
2022-11-09T15:59:49.277Z,100608.45
2022-11-09T16:05:16.937Z,100598.09
2022-11-09T16:10:44.727Z,100595.90
2022-11-09T16:16:14.092Z,100606.15
2022-11-09T16:21:40.587Z,100606.71
2022-11-09T16:27:17.185Z,100611.48
2022-11-09T16:32:55.761Z,100609.15
2022-11-09T16:38:22.650Z,100603.79
2022-11-09T16:43:52.856Z,100598.98
2022-11-09T16:49:19.471Z,100598.66
2022-11-09T16:54:45.861Z,100605.39
2022-11-09T17:00:18.878Z,100610.08
2022-11-09T17:05:46.243Z,100619.84
2022-11-09T17:11:15.282Z,100625.30
2022-11-09T17:16:42.747Z,100629.50
2022-11-09T17:22:08.998Z,100625.69
2022-11-09T17:27:35.470Z,100625.23
2022-11-09T17:33:05.473Z,100620.73
2022-11-09T17:38:32.326Z,100617.79
2022-11-09T17:44:02.769Z,100611.15
2022-11-09T17:49:29.433Z,100612.98
2022-11-09T17:54:55.991Z,100612.35
2022-11-09T18:00:24.437Z,100618.08
2022-11-09T18:05:49.583Z,100614.15
2022-11-09T18:11:17.063Z,100618.29
2022-11-09T18:16:43.309Z,100624.14
2022-11-09T18:22:12.881Z,100627.77
2022-11-09T18:27:39.527Z,100632.15
2022-11-09T18:33:06.210Z,100627.30
2022-11-09T18:38:33.000Z,100633.50
2022-11-09T18:44:02.742Z,100639.24
2022-11-09T18:49:29.543Z,100635.79
2022-11-09T18:54:57.036Z,100627.79
2022-11-09T19:00:23.703Z,100633.77
2022-11-09T19:05:50.644Z,100634.09
2022-11-09T19:11:17.165Z,100642.91
2022-11-09T19:16:43.544Z,100642.86
2022-11-09T19:22:28.886Z,100639.41
2022-11-09T19:27:55.565Z,100642.54
2022-11-09T19:33:21.990Z,100650.05
2022-11-09T19:38:50.497Z,100655.63
2022-11-09T19:44:18.223Z,100659.22
2022-11-09T19:49:45.050Z,100664.66
2022-11-09T19:55:12.632Z,100670.00
2022-11-09T20:00:38.972Z,100673.38
2022-11-09T20:06:07.271Z,100673.71
2022-11-09T20:11:56.356Z,100678.30
2022-11-09T20:17:28.427Z,100685.61
2022-11-09T20:22:54.720Z,100688.49
2022-11-09T20:28:21.784Z,100683.09
2022-11-09T20:34:02.879Z,100682.36
2022-11-09T20:39:29.414Z,100678.74
2022-11-09T20:44:56.887Z,100678.98
2022-11-09T20:50:23.517Z,100681.63
2022-11-09T20:55:53.610Z,100687.68
2022-11-09T21:01:24.998Z,100678.83
2022-11-09T21:06:51.761Z,100678.06
2022-11-09T21:12:25.168Z,100684.98
2022-11-09T21:17:54.042Z,100688.91
2022-11-09T21:23:38.136Z,100686.20
2022-11-09T21:29:22.015Z,100680.55
2022-11-09T21:34:48.510Z,100682.21
2022-11-09T21:40:15.396Z,100677.98
2022-11-09T21:45:41.794Z,100681.29
2022-11-09T21:51:08.262Z,100682.73
2022-11-09T21:56:35.415Z,100687.37
2022-11-09T22:02:02.060Z,100692.23
2022-11-09T22:07:28.501Z,100692.38
2022-11-09T22:13:12.783Z,100698.86
2022-11-09T22:18:57.416Z,100698.66
2022-11-09T22:24:23.755Z,100699.96
2022-11-09T22:29:50.433Z,100696.79
2022-11-09T22:35:17.224Z,100698.08
2022-11-09T22:40:44.307Z,100696.51
2022-11-09T22:46:14.199Z,100699.95
2022-11-09T22:51:40.687Z,100705.17
2022-11-09T22:57:07.151Z,100705.77
2022-11-09T23:02:33.521Z,100706.48
2022-11-09T23:07:59.865Z,100709.58
2022-11-09T23:13:26.981Z,100715.88
2022-11-09T23:18:57.083Z,100717.84
2022-11-09T23:24:37.096Z,100709.34
2022-11-09T23:30:04.524Z,100711.65
2022-11-09T23:35:30.776Z,100714.42
2022-11-09T23:40:59.799Z,100719.35
2022-11-09T23:46:26.126Z,100722.81
2022-11-09T23:51:52.210Z,100718.98
2022-11-09T23:57:18.601Z,100718.23
